createdAt,value
2017-06-12T00:01:30.235Z,101583.05
2017-06-12T00:03:56.455Z,101582.53
2017-06-12T00:06:22.666Z,101577.66
2017-06-12T00:08:48.900Z,101583.81
2017-06-12T00:11:15.363Z,101585.17
2017-06-12T00:13:41.600Z,101581.86
2017-06-12T00:17:37.699Z,101583.13
2017-06-12T00:20:03.945Z,101585.38
2017-06-12T00:22:30.328Z,101591.74
2017-06-12T00:24:56.561Z,101594.22
2017-06-12T00:27:22.795Z,101584.66
2017-06-12T00:29:49.135Z,101584.95
2017-06-12T00:32:15.355Z,101582.42
2017-06-12T00:34:41.725Z,101586.62
2017-06-12T00:37:07.947Z,101580.94
2017-06-12T00:39:34.182Z,101579.24
2017-06-12T00:42:00.474Z,101578.96
2017-06-12T00:44:26.701Z,101579.97
2017-06-12T00:46:52.928Z,101579.63
2017-06-12T00:49:19.208Z,101578.96
2017-06-12T00:51:45.591Z,101585.26
2017-06-12T00:54:11.818Z,101585.08
2017-06-12T00:56:38.164Z,101583.11
2017-06-12T00:59:04.418Z,101582.53
2017-06-12T01:01:30.959Z,101589.19
2017-06-12T01:03:57.234Z,101584.14
2017-06-12T01:06:23.467Z,101582.37
2017-06-12T01:08:49.801Z,101587.19
2017-06-12T01:11:16.114Z,101590.03
2017-06-12T01:13:42.346Z,101593.55
2017-06-12T01:17:36.467Z,101590.27
2017-06-12T01:20:02.737Z,101595.45
2017-06-12T01:22:29.799Z,101589.25
2017-06-12T01:24:56.026Z,101588.80
2017-06-12T01:27:22.270Z,101586.52
2017-06-12T01:29:48.754Z,101587.52
2017-06-12T01:32:15.031Z,101588.31
2017-06-12T01:34:41.278Z,101597.64
2017-06-12T01:37:07.598Z,101596.66
2017-06-12T01:39:33.841Z,101597.17
2017-06-12T01:42:00.207Z,101602.91
2017-06-12T01:44:26.552Z,101602.16
2017-06-12T01:46:52.816Z,101603.73
2017-06-12T01:49:19.081Z,101607.44
2017-06-12T01:51:45.831Z,101603.02
2017-06-12T01:54:12.148Z,101603.50
2017-06-12T01:56:38.482Z,101593.13
2017-06-12T01:59:04.723Z,101596.01
2017-06-12T02:01:30.994Z,101608.58
2017-06-12T02:03:57.228Z,101602.66
2017-06-12T02:06:23.447Z,101609.81
2017-06-12T02:08:49.810Z,101610.50
2017-06-12T02:11:16.050Z,101606.89
2017-06-12T02:13:42.324Z,101613.45
2017-06-12T02:17:36.827Z,101613.83
2017-06-12T02:20:03.071Z,101611.30
2017-06-12T02:22:29.305Z,101608.60
2017-06-12T02:24:55.522Z,101612.27
2017-06-12T02:27:21.788Z,101613.88
2017-06-12T02:29:48.022Z,101614.33
2017-06-12T02:32:14.350Z,101620.96
2017-06-12T02:34:40.588Z,101615.63
2017-06-12T02:37:06.855Z,101613.29
2017-06-12T02:39:33.101Z,101610.61
2017-06-12T02:41:59.332Z,101606.94
2017-06-12T02:44:25.631Z,101600.98
2017-06-12T02:46:51.867Z,101608.06
2017-06-12T02:49:19.627Z,101605.52
2017-06-12T02:51:45.884Z,101597.30
2017-06-12T02:54:12.255Z,101600.09
2017-06-12T02:56:38.499Z,101601.27
2017-06-12T02:59:04.738Z,101606.06
2017-06-12T03:01:30.986Z,101605.81
2017-06-12T03:03:57.223Z,101601.03
2017-06-12T03:06:23.506Z,101600.03
2017-06-12T03:08:49.880Z,101595.34
2017-06-12T03:11:16.237Z,101603.60
2017-06-12T03:13:42.502Z,101608.66
2017-06-12T03:17:36.406Z,101610.22
2017-06-12T03:20:02.718Z,101616.52
2017-06-12T03:22:28.954Z,101623.05
2017-06-12T03:24:55.179Z,101610.55
2017-06-12T03:27:21.406Z,101608.66
2017-06-12T03:29:47.698Z,101612.64
2017-06-12T03:32:13.917Z,101614.14
2017-06-12T03:34:40.156Z,101620.88
2017-06-12T03:37:06.407Z,101618.79
2017-06-12T03:39:32.776Z,101622.56
2017-06-12T03:41:59.023Z,101618.52
2017-06-12T03:44:25.253Z,101625.12
2017-06-12T03:46:51.490Z,101625.98
2017-06-12T03:49:17.859Z,101623.06
2017-06-12T03:51:44.163Z,101630.67
2017-06-12T03:54:10.511Z,101629.05
2017-06-12T03:56:36.772Z,101622.56
2017-06-12T03:59:02.999Z,101627.16
2017-06-12T04:01:29.236Z,101622.92
2017-06-12T04:03:55.470Z,101625.11
2017-06-12T04:06:21.831Z,101628.14
2017-06-12T04:08:48.050Z,101626.92
2017-06-12T04:11:14.276Z,101638.20
2017-06-12T04:13:40.524Z,101640.16
2017-06-12T04:17:36.724Z,101625.83
2017-06-12T04:20:03.749Z,101618.52
2017-06-12T04:22:29.959Z,101629.49
2017-06-12T04:24:56.173Z,101622.91
2017-06-12T04:27:22.402Z,101628.59
2017-06-12T04:29:48.797Z,101629.45
2017-06-12T04:32:15.040Z,101631.06
2017-06-12T04:34:41.263Z,101624.48
2017-06-12T04:37:07.490Z,101635.36
2017-06-12T04:39:33.723Z,101635.55
2017-06-12T04:41:59.986Z,101635.08
2017-06-12T04:44:26.198Z,101632.55
2017-06-12T04:46:52.465Z,101629.91
2017-06-12T04:49:18.818Z,101629.02
2017-06-12T04:51:45.060Z,101632.73
2017-06-12T04:54:11.279Z,101639.42
2017-06-12T04:56:37.502Z,101639.31
2017-06-12T04:59:04.125Z,101637.27
2017-06-12T05:01:30.391Z,101635.66
2017-06-12T05:03:56.672Z,101638.80
2017-06-12T05:06:22.882Z,101654.73
2017-06-12T05:08:49.122Z,101652.39
2017-06-12T05:11:15.472Z,101653.75
2017-06-12T05:13:41.702Z,101655.36
2017-06-12T05:17:37.023Z,101653.80
2017-06-12T05:20:03.272Z,101649.84
2017-06-12T05:22:29.492Z,101653.13
2017-06-12T05:24:55.750Z,101648.62
2017-06-12T05:27:22.079Z,101651.94
2017-06-12T05:29:48.374Z,101651.09
2017-06-12T05:32:14.617Z,101652.17
2017-06-12T05:34:40.855Z,101653.63
2017-06-12T05:37:07.163Z,101650.59
2017-06-12T05:39:33.406Z,101653.41
2017-06-12T05:41:59.748Z,101646.47
2017-06-12T05:44:25.971Z,101648.55
2017-06-12T05:46:52.208Z,101649.48
2017-06-12T05:49:18.546Z,101655.42
2017-06-12T05:51:44.815Z,101657.19
2017-06-12T05:54:11.042Z,101658.80
2017-06-12T05:56:37.398Z,101670.52
2017-06-12T05:59:03.626Z,101662.12
2017-06-12T06:01:29.963Z,101667.95
2017-06-12T06:03:56.182Z,101671.63
2017-06-12T06:06:22.411Z,101674.76
2017-06-12T06:08:48.656Z,101683.66
2017-06-12T06:11:14.987Z,101668.72
2017-06-12T06:13:41.255Z,101689.20
2017-06-12T06:17:36.666Z,101679.95
2017-06-12T06:20:02.921Z,101681.79
2017-06-12T06:22:29.150Z,101697.28
2017-06-12T06:24:55.378Z,101684.84
2017-06-12T06:27:21.614Z,101679.97
2017-06-12T06:29:47.931Z,101688.49
2017-06-12T06:32:14.157Z,101683.26
2017-06-12T06:34:40.574Z,101680.77
2017-06-12T06:37:06.821Z,101673.59
2017-06-12T06:39:33.047Z,101683.09
2017-06-12T06:41:59.359Z,101690.00
2017-06-12T06:44:25.610Z,101696.80
2017-06-12T06:46:51.929Z,101701.22
2017-06-12T06:49:18.189Z,101693.97
2017-06-12T06:51:44.468Z,101691.44
2017-06-12T06:54:10.715Z,101710.48
2017-06-12T06:56:36.977Z,101708.88
2017-06-12T06:59:03.322Z,101700.35
2017-06-12T07:01:29.564Z,101701.81
2017-06-12T07:03:55.816Z,101704.03
2017-06-12T07:06:22.090Z,101705.33
2017-06-12T07:08:48.333Z,101698.28
2017-06-12T07:11:14.647Z,101699.14
2017-06-12T07:13:40.895Z,101695.64
2017-06-12T07:17:36.454Z,101708.67
2017-06-12T07:20:02.827Z,101710.59
2017-06-12T07:22:29.092Z,101707.48
2017-06-12T07:24:55.341Z,101710.24
2017-06-12T07:27:21.650Z,101717.92
2017-06-12T07:29:47.888Z,101718.49
2017-06-12T07:32:14.165Z,101714.86
2017-06-12T07:34:40.400Z,101711.15
2017-06-12T07:37:06.675Z,101722.44
2017-06-12T07:39:32.948Z,101724.19
2017-06-12T07:41:59.179Z,101736.92
2017-06-12T07:44:25.471Z,101747.97
2017-06-12T07:46:51.797Z,101738.94
2017-06-12T07:49:18.232Z,101740.66
2017-06-12T07:51:44.478Z,101746.95
2017-06-12T07:54:10.759Z,101745.86
2017-06-12T07:56:37.008Z,101742.47
2017-06-12T07:59:03.261Z,101736.65
2017-06-12T08:01:29.513Z,101740.12
2017-06-12T08:03:55.774Z,101738.75
2017-06-12T08:06:22.156Z,101749.44
2017-06-12T08:08:48.506Z,101731.79
2017-06-12T08:11:14.768Z,101739.16
2017-06-12T08:13:41.008Z,101734.16
2017-06-12T08:17:37.079Z,101734.65
2017-06-12T08:20:03.375Z,101738.19
2017-06-12T08:22:29.621Z,101732.52
2017-06-12T08:24:55.928Z,101748.13
2017-06-12T08:27:22.271Z,101750.00
2017-06-12T08:29:48.532Z,101751.67
2017-06-12T08:32:14.822Z,101752.12
2017-06-12T08:34:41.123Z,101742.06
2017-06-12T08:37:07.401Z,101742.84
2017-06-12T08:39:33.674Z,101750.05
2017-06-12T08:41:59.969Z,101766.19
2017-06-12T08:44:26.215Z,101767.36
2017-06-12T08:46:52.478Z,101767.69
2017-06-12T08:49:18.801Z,101771.56
2017-06-12T08:51:45.087Z,101776.69
2017-06-12T08:54:11.342Z,101776.52
2017-06-12T08:56:37.622Z,101771.48
2017-06-12T08:59:04.101Z,101772.30
2017-06-12T09:01:30.373Z,101777.69
2017-06-12T09:03:56.612Z,101773.67
2017-06-12T09:06:22.884Z,101784.20
2017-06-12T09:08:49.143Z,101778.87
2017-06-12T09:11:15.458Z,101784.27
2017-06-12T09:13:41.724Z,101782.33
2017-06-12T09:17:36.822Z,101791.51
2017-06-12T09:20:03.106Z,101792.18
2017-06-12T09:22:29.358Z,101798.42
2017-06-12T09:24:55.615Z,101803.78
2017-06-12T09:27:21.962Z,101813.57
2017-06-12T09:29:48.234Z,101810.86
2017-06-12T09:32:14.492Z,101811.08
2017-06-12T09:34:40.792Z,101817.10
2017-06-12T09:37:07.052Z,101817.65
2017-06-12T09:39:33.379Z,101812.56
2017-06-12T09:41:59.635Z,101812.39
2017-06-12T09:44:26.010Z,101816.27
2017-06-12T09:46:52.462Z,101819.30
2017-06-12T09:49:18.731Z,101829.66
2017-06-12T09:51:45.752Z,101824.16
2017-06-12T09:54:12.132Z,101828.23
2017-06-12T09:56:38.407Z,101830.23
2017-06-12T09:59:04.735Z,101836.80
2017-06-12T10:01:31.052Z,101843.23
2017-06-12T10:03:57.319Z,101840.77
2017-06-12T10:06:23.644Z,101824.98
2017-06-12T10:08:49.902Z,101824.45
2017-06-12T10:11:16.150Z,101830.91
2017-06-12T10:13:42.429Z,101823.19
2017-06-12T10:17:36.499Z,101834.13
2017-06-12T10:20:02.780Z,101837.43
2017-06-12T10:22:29.030Z,101837.33
2017-06-12T10:24:55.366Z,101854.79
2017-06-12T10:27:21.615Z,101848.62
2017-06-12T10:29:47.970Z,101848.23
2017-06-12T10:32:14.240Z,101850.38
2017-06-12T10:34:40.582Z,101851.50
2017-06-12T10:37:06.941Z,101852.72
2017-06-12T10:39:33.184Z,101853.84
2017-06-12T10:41:59.429Z,101849.27
2017-06-12T10:44:25.685Z,101855.76
2017-06-12T10:46:51.948Z,101856.69
2017-06-12T10:49:18.214Z,101856.23
2017-06-12T10:51:44.481Z,101860.89
2017-06-12T10:54:10.807Z,101850.61
2017-06-12T10:56:37.070Z,101866.22
2017-06-12T10:59:03.339Z,101864.98
2017-06-12T11:01:29.633Z,101856.15
2017-06-12T11:03:55.889Z,101862.98
2017-06-12T11:06:22.140Z,101861.83
2017-06-12T11:08:48.565Z,101854.63
2017-06-12T11:11:14.811Z,101858.06
2017-06-12T11:13:41.063Z,101858.38
2017-06-12T11:17:36.251Z,101870.83
2017-06-12T11:20:02.612Z,101872.99
2017-06-12T11:22:34.961Z,101869.74
2017-06-12T11:25:01.252Z,101875.04
2017-06-12T11:27:27.872Z,101875.27
2017-06-12T11:29:54.201Z,101874.80
2017-06-12T11:32:20.482Z,101896.92
2017-06-12T11:34:46.759Z,101887.12
2017-06-12T11:37:13.011Z,101879.31
2017-06-12T11:39:39.280Z,101887.36
2017-06-12T11:42:05.634Z,101890.39
2017-06-12T11:44:31.923Z,101891.78
2017-06-12T11:46:58.186Z,101889.41
2017-06-12T11:49:24.458Z,101888.06
2017-06-12T11:51:50.747Z,101893.16
2017-06-12T11:54:17.203Z,101892.00
2017-06-12T11:56:43.458Z,101886.63
2017-06-12T11:59:09.719Z,101893.42
2017-06-12T12:01:35.988Z,101898.18
2017-06-12T12:04:02.973Z,101893.63
2017-06-12T12:06:29.320Z,101892.05
2017-06-12T12:08:55.580Z,101898.98
2017-06-12T12:11:21.844Z,101906.39
2017-06-12T12:13:48.168Z,101908.91
2017-06-12T12:17:36.134Z,101904.36
2017-06-12T12:20:02.521Z,101908.72
2017-06-12T12:22:28.811Z,101913.89
2017-06-12T12:24:55.057Z,101915.08
2017-06-12T12:27:21.332Z,101931.11
2017-06-12T12:29:47.585Z,101923.20
2017-06-12T12:32:13.847Z,101930.05
2017-06-12T12:34:40.118Z,101927.34
2017-06-12T12:37:06.404Z,101931.16
2017-06-12T12:39:32.632Z,101920.33
2017-06-12T12:41:58.914Z,101928.34
2017-06-12T12:44:25.195Z,101930.03
2017-06-12T12:46:51.525Z,101928.11
2017-06-12T12:49:17.779Z,101926.40
2017-06-12T12:51:44.017Z,101925.56
2017-06-12T12:54:10.299Z,101929.59
2017-06-12T12:56:36.574Z,101926.20
2017-06-12T12:59:02.899Z,101936.19
2017-06-12T13:01:29.145Z,101946.39
2017-06-12T13:03:55.395Z,101940.55
2017-06-12T13:06:21.663Z,101952.72
2017-06-12T13:08:47.904Z,101945.22
2017-06-12T13:11:14.283Z,101943.41
2017-06-12T13:13:40.567Z,101941.98
2017-06-12T13:17:37.649Z,101943.55
2017-06-12T13:20:03.915Z,101942.78
2017-06-12T13:22:30.146Z,101950.94
2017-06-12T13:24:56.419Z,101950.20
2017-06-12T13:27:22.643Z,101952.27
2017-06-12T13:29:48.958Z,101951.39
2017-06-12T13:32:15.251Z,101950.84
2017-06-12T13:34:41.550Z,101952.54
2017-06-12T13:37:07.792Z,101940.64
2017-06-12T13:39:34.292Z,101948.33
2017-06-12T13:42:00.530Z,101943.38
2017-06-12T13:44:26.780Z,101940.00
2017-06-12T13:46:53.082Z,101940.62
2017-06-12T13:49:19.332Z,101937.61
2017-06-12T13:51:45.600Z,101936.26
2017-06-12T13:54:11.863Z,101933.02
2017-06-12T13:56:38.094Z,101940.14
2017-06-12T13:59:04.430Z,101935.95
2017-06-12T14:01:30.719Z,101937.73
2017-06-12T14:03:57.076Z,101942.88
2017-06-12T14:06:23.326Z,101941.80
2017-06-12T14:08:49.587Z,101943.59
2017-06-12T14:11:15.827Z,101944.62
2017-06-12T14:13:42.265Z,101948.23
2017-06-12T14:17:38.421Z,101951.20
2017-06-12T14:20:04.728Z,101944.92
2017-06-12T14:22:30.964Z,101945.78
2017-06-12T14:24:57.219Z,101953.78
2017-06-12T14:27:23.530Z,101955.37
2017-06-12T14:29:49.773Z,101967.94
2017-06-12T14:32:16.043Z,101963.92
2017-06-12T14:34:42.266Z,101964.05
2017-06-12T14:37:08.506Z,101958.41
2017-06-12T14:39:34.759Z,101968.35
2017-06-12T14:42:01.043Z,101956.05
2017-06-12T14:44:39.494Z,101958.20
2017-06-12T14:47:05.744Z,101972.54
2017-06-12T14:49:32.015Z,101970.52
2017-06-12T14:51:58.281Z,101966.49
2017-06-12T14:54:24.548Z,101993.98
2017-06-12T14:56:50.805Z,101975.90
2017-06-12T14:59:17.283Z,101983.70
2017-06-12T15:01:43.520Z,101982.62
2017-06-12T15:04:09.765Z,101981.72
2017-06-12T15:06:36.027Z,101983.93
2017-06-12T15:09:02.352Z,101977.36
2017-06-12T15:11:29.270Z,101980.20
2017-06-12T15:13:55.645Z,101988.27
2017-06-12T15:17:36.516Z,101982.42
2017-06-12T15:20:03.036Z,101977.69
2017-06-12T15:22:29.267Z,101985.92
2017-06-12T15:24:55.648Z,101989.52
2017-06-12T15:27:21.919Z,101984.83
2017-06-12T15:29:48.147Z,101982.66
2017-06-12T15:32:14.386Z,101977.22
2017-06-12T15:34:40.636Z,101986.16
2017-06-12T15:37:06.884Z,101968.27
2017-06-12T15:39:33.206Z,101984.98
2017-06-12T15:41:59.543Z,101983.52
2017-06-12T15:44:25.880Z,101982.98
2017-06-12T15:46:52.111Z,101978.58
2017-06-12T15:49:18.347Z,101981.59
2017-06-12T15:51:44.667Z,101972.64
2017-06-12T15:54:10.907Z,101966.20
2017-06-12T15:56:37.132Z,101964.01
2017-06-12T15:59:03.439Z,101965.25
2017-06-12T16:01:30.406Z,101961.00
2017-06-12T16:03:56.723Z,101962.79
2017-06-12T16:06:22.994Z,101961.47
2017-06-12T16:08:49.239Z,101957.81
2017-06-12T16:11:15.538Z,101952.77
2017-06-12T16:13:41.877Z,101959.99
2017-06-12T16:17:38.671Z,101951.22
2017-06-12T16:20:05.067Z,101954.05
2017-06-12T16:22:31.321Z,101961.15
2017-06-12T16:24:57.611Z,101958.48
2017-06-12T16:27:23.855Z,101961.17
2017-06-12T16:29:50.118Z,101965.43
2017-06-12T17:13:27.247Z,101980.86
2017-06-12T17:17:38.123Z,101979.20
2017-06-12T17:20:04.417Z,101986.06
2017-06-12T17:22:30.790Z,101986.11
2017-06-12T17:24:57.072Z,101991.04
2017-06-12T17:27:23.339Z,101987.92
2017-06-12T17:29:49.647Z,102002.71
2017-06-12T17:32:15.903Z,101998.91
2017-06-12T17:34:42.396Z,101996.09
2017-06-12T17:37:08.700Z,102002.16
2017-06-12T17:39:34.954Z,102005.53
2017-06-12T17:42:01.214Z,102001.02
2017-06-12T17:44:27.474Z,102003.48
2017-06-12T17:46:53.845Z,102002.00
2017-06-12T17:49:20.136Z,102004.13
2017-06-12T17:51:46.446Z,102006.90
2017-06-12T17:54:12.731Z,102002.24
2017-06-12T17:56:39.015Z,102001.99
2017-06-12T17:59:05.291Z,102000.17
2017-06-12T18:01:31.571Z,102001.71
2017-06-12T18:03:59.015Z,102005.20
2017-06-12T18:06:25.287Z,102013.16
2017-06-12T18:08:51.552Z,102004.65
2017-06-12T18:11:17.859Z,101998.69
2017-06-12T18:13:44.168Z,102004.41
2017-06-12T18:17:42.833Z,101999.24
2017-06-12T18:20:09.086Z,102000.11
2017-06-12T18:22:35.432Z,101997.52
2017-06-12T18:25:01.758Z,102006.15
2017-06-12T18:27:28.024Z,101999.18
2017-06-12T18:29:54.368Z,102000.09
2017-06-12T18:32:21.745Z,101997.22
2017-06-12T18:34:48.026Z,102001.26
2017-06-12T18:37:14.298Z,102000.57
2017-06-12T18:39:40.582Z,102001.73
2017-06-12T18:42:06.843Z,102004.19
2017-06-12T18:44:33.129Z,102001.23
2017-06-12T18:46:59.392Z,102000.92
2017-06-12T18:49:25.639Z,102008.47
2017-06-12T18:51:52.036Z,101996.14
2017-06-12T18:54:18.300Z,101994.95
2017-06-12T18:56:44.593Z,101997.52
2017-06-12T18:59:11.089Z,101999.02
2017-06-12T19:01:38.055Z,101994.55
2017-06-12T19:04:04.890Z,101997.11
2017-06-12T19:06:31.141Z,101990.17
2017-06-12T19:08:57.379Z,102001.85
2017-06-12T19:11:23.639Z,101997.31
2017-06-12T19:13:49.908Z,102000.40
2017-06-12T19:17:37.701Z,102001.42
2017-06-12T19:20:03.963Z,101999.78
2017-06-12T19:22:30.240Z,102005.29
2017-06-12T19:24:56.556Z,102005.92
2017-06-12T19:27:22.831Z,102006.36
2017-06-12T19:29:49.080Z,102009.72
2017-06-12T19:32:15.427Z,102011.27
2017-06-12T19:34:41.775Z,102012.95
2017-06-12T19:37:08.122Z,102006.87
2017-06-12T19:39:34.415Z,102011.63
2017-06-12T19:42:00.796Z,102015.38
2017-06-12T19:44:27.077Z,102012.65
2017-06-12T19:46:53.394Z,102006.55
2017-06-12T19:49:19.891Z,102012.36
2017-06-12T19:51:46.250Z,102017.33
2017-06-12T19:54:12.491Z,102020.08
2017-06-12T19:56:38.874Z,102017.29
2017-06-12T19:59:05.119Z,102010.69
2017-06-12T20:01:31.401Z,102018.23
2017-06-12T20:03:57.733Z,102021.16
2017-06-12T20:06:24.051Z,102017.68
2017-06-12T20:08:50.315Z,102024.12
2017-06-12T20:11:16.807Z,102023.00
2017-06-12T20:13:43.039Z,102025.41
2017-06-12T20:17:36.732Z,102031.95
2017-06-12T20:20:03.028Z,102040.36
2017-06-12T20:22:29.375Z,102040.30
2017-06-12T20:24:55.621Z,102040.36
2017-06-12T20:27:21.966Z,102041.98
2017-06-12T20:29:48.231Z,102035.59
2017-06-12T20:32:14.498Z,102039.80
2017-06-12T20:34:40.819Z,102037.09
2017-06-12T20:37:07.071Z,102040.55
2017-06-12T20:39:33.643Z,102041.34
2017-06-12T20:41:59.919Z,102039.63
2017-06-12T20:44:26.156Z,102045.04
2017-06-12T20:46:52.396Z,102050.84
2017-06-12T20:49:18.635Z,102042.52
2017-06-12T20:51:44.967Z,102041.16
2017-06-12T20:54:11.220Z,102045.23
2017-06-12T20:56:37.447Z,102045.83
2017-06-12T20:59:03.702Z,102041.69
2017-06-12T21:01:29.968Z,102044.75
2017-06-12T21:03:56.239Z,102051.57
2017-06-12T21:06:22.579Z,102044.84
2017-06-12T21:08:48.854Z,102041.77
2017-06-12T21:11:15.142Z,102042.98
2017-06-12T21:13:41.375Z,102041.48
2017-06-12T21:17:38.422Z,102047.20
2017-06-12T21:20:04.678Z,102044.70
2017-06-12T21:22:30.917Z,102050.16
2017-06-12T21:24:57.188Z,102049.17
2017-06-12T21:27:23.701Z,102042.58
2017-06-12T21:29:50.067Z,102040.13
2017-06-12T21:32:16.316Z,102039.41
2017-06-12T21:34:42.574Z,102043.06
2017-06-12T21:37:08.837Z,102039.22
2017-06-12T21:39:35.090Z,102030.19
2017-06-12T21:42:01.558Z,102035.22
2017-06-12T21:44:27.849Z,102028.59
2017-06-12T21:46:54.105Z,102029.23
2017-06-12T21:49:20.370Z,102032.38
2017-06-12T21:51:46.612Z,102021.91
2017-06-12T21:54:12.847Z,102031.88
2017-06-12T21:56:39.107Z,102029.20
2017-06-12T21:59:05.428Z,102023.64
2017-06-12T22:01:31.680Z,102030.08
2017-06-12T22:03:57.941Z,102024.37
2017-06-12T22:06:24.263Z,102026.58
2017-06-12T22:08:50.514Z,102036.42
2017-06-12T22:11:16.790Z,102025.11
2017-06-12T22:13:43.036Z,102035.45
2017-06-12T22:17:38.593Z,102033.58
2017-06-12T22:20:04.916Z,102038.59
2017-06-12T22:22:31.163Z,102035.27
2017-06-12T22:24:57.395Z,102037.95
2017-06-12T22:27:23.630Z,102033.84
2017-06-12T22:29:49.906Z,102032.91
2017-06-12T22:32:16.209Z,102029.23
2017-06-12T22:34:42.443Z,102027.37
2017-06-12T22:37:08.682Z,102031.13
2017-06-12T22:39:34.935Z,102032.12
2017-06-12T22:42:01.181Z,102025.70
2017-06-12T22:44:27.526Z,102038.25
2017-06-12T22:46:53.861Z,102034.27
2017-06-12T22:49:20.131Z,102042.95
2017-06-12T22:51:46.409Z,102044.04
2017-06-12T22:54:12.677Z,102039.33
2017-06-12T22:56:39.028Z,102047.02
2017-06-12T22:59:05.323Z,102048.81
2017-06-12T23:01:31.584Z,102045.23
2017-06-12T23:03:57.929Z,102048.03
2017-06-12T23:06:24.213Z,102047.17
2017-06-12T23:08:50.619Z,102049.22
2017-06-12T23:11:16.850Z,102046.87
2017-06-12T23:13:43.073Z,102043.74
2017-06-12T23:17:36.791Z,102040.84
2017-06-12T23:20:03.123Z,102042.84
2017-06-12T23:22:29.362Z,102039.73
2017-06-12T23:24:55.628Z,102041.41
2017-06-12T23:27:27.942Z,102043.63
2017-06-12T23:29:54.199Z,102037.65
2017-06-12T23:32:20.531Z,102041.53
2017-06-12T23:34:46.812Z,102040.88
2017-06-12T23:37:13.048Z,102045.25
2017-06-12T23:39:39.292Z,102040.84
2017-06-12T23:42:05.539Z,102045.41
2017-06-12T23:44:31.882Z,102038.77
2017-06-12T23:46:58.115Z,102038.47
2017-06-12T23:49:24.343Z,102034.78
2017-06-12T23:51:50.593Z,102034.55
2017-06-12T23:54:16.848Z,102035.02
2017-06-12T23:56:43.211Z,102039.77
2017-06-12T23:59:09.446Z,102040.61
